• Join FlightAware (Why Join?)
  • Login
  • US Flag 
02:40PM EDT


 

Airport Tracker/Info


-or-


 

Live Flight TrackerFlight Track Log ✈ ANA1185 ✈ 27-Apr-2014 ✈ RJTT / HND - RCSS / TSA

Flight Track Log - Related Links

Times and Time Zones

All times are in EDT time to prevent confusion due to time zone crossing. See the ANA1185 flight status page for this flight to view local times or setup timezone preferences in your user account.

Time Position Orientation Groundspeed Altitude Reporting Facility
EDT Latitude Longitude Course Direction KTS MPH feet Rate Location/Type
09:22PM 35.5286 139.7913 148° Southeast 139 160 700  Level FlightAware ADS-B (RJTK)
09:22PM 35.5230 139.7952 149° Southeast 146 168 1,100 2,160 Climbing FlightAware ADS-B (RJTF)
09:22PM 35.5148 139.8010 150° Southeast 151 174 1,500 1,860 Climbing FlightAware ADS-B (RJTK)
09:22PM 35.5135 139.8020 149° Southeast 151 174 1,600 1,980 Climbing FlightAware ADS-B (RJTF)
09:22PM 35.5042 139.8087 149° Southeast 153 176 2,200 2,640 Climbing FlightAware ADS-B (RJTF)
09:23PM 35.4949 139.8153 149° Southeast 156 180 2,900 2,640 Climbing FlightAware ADS-B (RJTF)
09:23PM 35.4908 139.8183 150° Southeast 168 193 3,000 1,200 Climbing FlightAware ADS-B (RJTK)
09:23PM 35.4841 139.8229 150° Southeast 175 201 3,200 1,320 Climbing FlightAware ADS-B (RJTF)
09:23PM 35.5546 139.7729 153° Southeast 183 211 3,400 1,800 Climbing FlightAware ADS-B (RJTF)
09:23PM 35.4766 139.8276 160° South 188 216 3,500 660 Climbing FlightAware ADS-B (RJTF)
09:23PM 35.4734 139.8284 169° South 192 221 3,500 600 Level FlightAware ADS-B (RJTF)
09:23PM 35.4677 139.8280 191° South 203 234 3,600 1,200 Climbing FlightAware ADS-B (RJTF)
09:23PM 35.4650 139.8271 196° South 207 238 3,700 1,620 Climbing FlightAware ADS-B (RJTF)
09:24PM 35.4558 139.8229 205° Southwest 215 247 3,900 2,220 Climbing FlightAware ADS-B (RJTK)
09:24PM 35.4482 139.8187 206° Southwest 226 260 4,300 2,460 Climbing FlightAware ADS-B (RJTF)
09:24PM 35.4702 139.8284 184° South 198 228 4,400 2,760 Climbing FlightAware ADS-B (RJTF)
09:24PM 35.4340 139.8105 206° Southwest 231 266 5,000 2,880 Climbing FlightAware ADS-B (RJTF)
09:24PM 35.4192 139.8021 206° Southwest 237 273 5,700 3,180 Climbing FlightAware ADS-B (RJTF)
09:24PM 35.4164 139.8004 206° Southwest 231 266 5,800 3,000 Climbing FlightAware ADS-B (RJTK)
09:24PM 35.4041 139.7935 205° Southwest 240 276 6,500 2,880 Climbing FlightAware ADS-B (RJTF)
09:25PM 35.3889 139.7854 204° Southwest 243 280 7,200 4,200 Climbing FlightAware ADS-B (RJTF)
09:25PM 35.3864 139.7841 205° Southwest 233 268 7,700 3,180 Climbing FlightAware ADS-B (RJTF)
09:25PM 35.3749 139.7781 204° Southwest 245 282 8,000 2,040 Climbing FlightAware ADS-B (RJTF)
09:25PM 35.3864 139.7841 203° Southwest 248 285 8,500 2,760 Climbing FlightAware ADS-B (RJTF)
09:25PM 35.3572 139.7689 204° Southwest 247 284 8,700 1,860 Climbing FlightAware ADS-B (RJTF)
09:25PM 35.3412 139.7607 203° Southwest 264 304 9,100 1,860 Climbing FlightAware ADS-B (RJTF)
09:26PM 35.3311 139.7556 204° Southwest 265 305 9,400 2,100 Climbing FlightAware ADS-B (RJTK)
09:26PM 35.3258 139.7526 207° Southwest 275 316 9,600 2,100 Climbing FlightAware ADS-B (RJTF)
09:26PM 35.3190 139.7481 212° Southwest 277 319 9,900 1,620 Climbing FlightAware ADS-B (RJTF)
09:26PM 35.3027 139.7331 223° Southwest 295 339 10,200 1,320 Climbing FlightAware ADS-B (RJTF)
09:26PM 35.3089 139.7395 227° Southwest 303 349 10,400 1,440 Climbing FlightAware ADS-B (RJTF)
09:26PM 35.2746 139.6960 228° Southwest 325 374 10,900 2,040 Climbing FlightAware ADS-B (RJTF)
09:27PM 35.2484 139.6615 228° Southwest 335 386 11,900 2,460 Climbing FlightAware ADS-B (RJTK)
09:27PM 35.2442 139.6559 228° Southwest 336 387 12,100 2,400 Climbing FlightAware ADS-B (RJTF)
09:27PM 35.2198 139.6234 228° Southwest 346 398 13,100 2,520 Climbing FlightAware ADS-B (RJTF)
09:27PM 35.2194 139.6228 228° Southwest 345 397 13,200 2,400 Climbing FlightAware ADS-B (RJTF)
09:28PM 35.1854 139.5779 227° Southwest 356 410 14,300 2,280 Climbing FlightAware ADS-B (RJTF)
09:28PM 35.1528 139.5292 238° Southwest 371 427 15,400 2,280 Climbing FlightAware ADS-B (RJTF)
09:29PM 35.1456 139.5082 252° West 375 432 15,800 2,640 Climbing FlightAware ADS-B (RJTK)
09:29PM 35.1405 139.4791 263° West 382 440 16,700 2,940 Climbing FlightAware ADS-B (RJTF)
09:29PM 35.1334 139.4146 262° West 386 444 18,300 2,880 Climbing FlightAware ADS-B (RJTF)
09:30PM 35.1207 139.3034 262° West 398 458 20,400 3,060 Climbing FlightAware ADS-B (RJTF)
09:30PM 35.1199 139.2963 262° West 399 459 20,800 2,820 Climbing FlightAware ADS-B (RJTF)
09:31PM 35.1100 139.2088 263° West 404 465 22,300 2,460 Climbing FlightAware ADS-B (RJTK)
09:32PM 35.0988 139.1100 263° West 407 468 24,200 2,460 Climbing FlightAware ADS-B (RJTK)
09:32PM 35.0877 139.0146 263° West 416 479 25,800 2,220 Climbing FlightAware ADS-B (RJTK)
09:33PM 35.0767 138.9200 263° West 426 490 27,200 1,860 Climbing FlightAware ADS-B (RJTK)
09:34PM 35.0657 138.8243 263° West 437 503 28,300 1,920 Climbing FlightAware ADS-B (RJTK)
09:34PM 35.0540 138.7274 261° West 440 506 29,800 1,980 Climbing FlightAware ADS-B (RJTK)
09:35PM 35.0376 138.6246 260° West 444 511 31,000 2,040 Climbing FlightAware ADS-B (RJTK)
09:36PM 35.0229 138.5333 259° West 438 504 32,500 2,280 Climbing FlightAware ADS-B (RJTK)
09:36PM 35.0082 138.4395 259° West 428 493 34,000 1,740 Climbing FlightAware ADS-B (RJTK)
09:37PM 34.9851 138.2905 259° West 431 496 35,500 1,500 Climbing FlightAware ADS-B (RJTK)
09:38PM 34.9629 138.1509 259° West 426 490 37,100 1,440 Climbing FlightAware ADS-B (RJTK)
09:39PM 34.9396 138.0049 259° West 419 482 38,500 1,560 Climbing FlightAware ADS-B (RJTK)
09:40PM 34.9254 137.9177 260° West 398 458 39,800 1,080 Climbing FlightAware ADS-B (RJTK)
09:41PM 34.9108 137.8255 260° West 406 467 40,000 120 Climbing FlightAware ADS-B (RJTK)
09:41PM 34.8968 137.7386 259° West 421 484 40,000  Level FlightAware ADS-B (RJTK)
09:42PM 34.8811 137.6432 259° West 430 495 40,000  Level FlightAware ADS-B (RJTK)
09:43PM 34.8646 137.5429 259° West 432 497 40,000  Level FlightAware ADS-B (RJTK)
09:43PM 34.8557 137.5019 248° West 441 507 40,000  Level FlightAware ADS-B (RJTK)
09:43PM 34.8342 137.4523 235° Southwest 449 517 40,000  Level FlightAware ADS-B (RJTK)
09:44PM 34.7771 137.3756 228° Southwest 455 524 40,000  Level FlightAware ADS-B (RJTK)
09:45PM 34.7173 137.2986 228° Southwest 454 522 40,000  Level FlightAware ADS-B (RJTK)
09:45PM 34.6564 137.2205 227° Southwest 452 520 40,000  Level FlightAware ADS-B (RJTK)
09:46PM 34.6007 137.1490 227° Southwest 451 519 40,000  Level FlightAware ADS-B (RJTK)
09:47PM 34.5362 137.0666 226° Southwest 458 527 40,000  Level FlightAware ADS-B (RJTK)
09:48PM 34.3707 136.9018 219° Southwest 459 528 40,000  Level FlightAware ADS-B (RJTK)
09:49PM 34.2844 136.8203 219° Southwest 458 527 40,000  Level FlightAware ADS-B (RJTK)
09:50PM 34.2002 136.7411 218° Southwest 465 535 40,000  Level FlightAware ADS-B (RJTK)
09:51PM 34.1257 136.6714 218° Southwest 466 536 40,000  Level FlightAware ADS-B (RJTK)
09:51PM 34.0654 136.6152 218° Southwest 466 536 40,000  Level FlightAware ADS-B (RJTK)
09:52PM 34.0029 136.5566 218° Southwest 466 536 40,000  Level FlightAware ADS-B (RJTK)
09:53PM 33.8999 136.4607 218° Southwest 468 539 40,000  Level FlightAware ADS-B (RJTK)
09:54PM 33.7955 136.3640 218° Southwest 466 536 40,000  Level FlightAware ADS-B (RJTK)
09:56PM 33.6216 136.2043 217° Southwest 462 532 40,000  Level FlightAware ADS-B (RJTK)
09:57PM 33.4930 136.0237 258° West 416 479 40,000  Level FlightAware ADS-B (RJTK)
09:58PM 33.5235 136.0010 240° Southwest  Level Estimated
09:58PM 33.4751 135.9332 257° West 418 481 40,000  Level FlightAware ADS-B (RJTK)
09:59PM 33.4574 135.8429 257° West 416 479 40,000  Level FlightAware ADS-B (RJTK)
10:01PM 33.3577 135.6387 240° Southwest  Level Estimated
10:02PM 33.3032 135.5275 240° Southwest  Level Estimated
10:03PM 33.2486 135.4164 240° Southwest  Level Estimated
10:04PM 33.1938 135.3055 240° Southwest  Level Estimated
10:05PM 33.1390 135.1947 239° Southwest  Level Estimated
10:06PM 33.0841 135.0840 239° Southwest  Level Estimated
10:07PM 33.0291 134.9735 239° Southwest  Level Estimated
10:08PM 32.9740 134.8631 239° Southwest  Level Estimated
10:09PM 32.9188 134.7528 239° Southwest  Level Estimated
10:10PM 32.8635 134.6427 239° Southwest  Level Estimated
10:11PM 32.8082 134.5328 239° Southwest  Level Estimated
10:12PM 32.7527 134.4229 239° Southwest  Level Estimated
10:13PM 32.6971 134.3132 239° Southwest  Level Estimated
10:14PM 32.6414 134.2037 239° Southwest  Level Estimated
10:15PM 32.5856 134.0943 239° Southwest  Level Estimated
10:16PM 32.5298 133.9850 239° Southwest  Level Estimated
10:17PM 32.4738 133.8758 239° Southwest  Level Estimated
10:18PM 32.4178 133.7668 239° Southwest  Level Estimated
10:19PM 32.3616 133.6579 239° Southwest  Level Estimated
10:20PM 32.3054 133.5492 239° Southwest  Level Estimated
10:21PM 32.2490 133.4406 239° Southwest  Level Estimated
10:22PM 32.1926 133.3321 238° Southwest  Level Estimated
10:23PM 32.1361 133.2237 238° Southwest  Level Estimated
10:24PM 32.0795 133.1155 238° Southwest  Level Estimated
10:25PM 32.0228 133.0075 238° Southwest  Level Estimated
10:26PM 31.9660 132.8995 238° Southwest  Level Estimated
10:27PM 31.9091 132.7917 238° Southwest  Level Estimated
10:28PM 31.8521 132.6841 238° Southwest  Level Estimated
10:29PM 31.7950 132.5765 238° Southwest  Level Estimated
10:30PM 31.7379 132.4691 238° Southwest  Level Estimated
10:31PM 31.6806 132.3618 238° Southwest  Level Estimated
10:32PM 31.6233 132.2547 238° Southwest  Level Estimated
10:33PM 31.5659 132.1477 238° Southwest  Level Estimated
10:34PM 31.5083 132.0408 238° Southwest  Level Estimated
10:35PM 31.4507 131.9341 238° Southwest  Level Estimated
10:36PM 31.3930 131.8274 238° Southwest  Level Estimated
10:37PM 31.3353 131.7210 238° Southwest  Level Estimated
10:38PM 31.2774 131.6146 238° Southwest  Level Estimated
10:39PM 31.2194 131.5084 237° Southwest  Level Estimated
10:40PM 31.1614 131.4023 237° Southwest  Level Estimated
10:41PM 31.1033 131.2963 237° Southwest  Level Estimated
10:42PM 31.0450 131.1905 237° Southwest  Level Estimated
10:43PM 30.9867 131.0848 237° Southwest  Level Estimated
10:44PM 30.9284 130.9792 237° Southwest  Level Estimated
10:45PM 30.8699 130.8738 237° Southwest  Level Estimated
10:46PM 30.8113 130.7685 237° Southwest  Level Estimated
10:47PM 30.7527 130.6633 237° Southwest  Level Estimated
10:48PM 30.6939 130.5582 237° Southwest  Level Estimated
10:49PM 30.6351 130.4533 237° Southwest  Level Estimated
10:50PM 30.5762 130.3485 237° Southwest  Level Estimated
10:51PM 30.5172 130.2438 237° Southwest  Level Estimated
10:52PM 30.4582 130.1393 237° Southwest  Level Estimated
10:53PM 30.3990 130.0348 237° Southwest  Level Estimated
10:54PM 30.3398 129.9305 237° Southwest  Level Estimated
10:55PM 30.2805 129.8264 237° Southwest  Level Estimated
10:56PM 30.2211 129.7223 237° Southwest  Level Estimated
10:57PM 30.1616 129.6184 237° Southwest  Level Estimated
10:58PM 30.1020 129.5146 236° Southwest  Level Estimated
10:59PM 30.0424 129.4109 236° Southwest  Level Estimated
11:00PM 29.9827 129.3074 236° Southwest  Level Estimated
11:01PM 29.9228 129.2040 236° Southwest  Level Estimated
11:02PM 29.8630 129.1007 236° Southwest  Level Estimated
11:03PM 29.8030 128.9975 236° Southwest  Level Estimated
11:04PM 29.7430 128.8945 236° Southwest  Level Estimated
11:05PM 29.6828 128.7916 236° Southwest  Level Estimated
11:06PM 29.6226 128.6888 236° Southwest  Level Estimated
11:07PM 29.5623 128.5861 236° Southwest  Level Estimated
11:08PM 29.5020 128.4835 236° Southwest  Level Estimated
11:09PM 29.4415 128.3811 236° Southwest  Level Estimated
11:10PM 29.3810 128.2788 236° Southwest  Level Estimated
11:11PM 29.3204 128.1766 236° Southwest  Level Estimated
11:12PM 29.2597 128.0745 236° Southwest  Level Estimated
11:13PM 29.1990 127.9726 236° Southwest  Level Estimated
11:14PM 29.1381 127.8708 236° Southwest  Level Estimated
11:15PM 29.0772 127.7691 236° Southwest  Level Estimated
11:16PM 29.0163 127.6675 236° Southwest  Level Estimated
11:17PM 28.9552 127.5660 235° Southwest  Level Estimated
11:18PM 28.8941 127.4647 235° Southwest  Level Estimated
11:19PM 28.8328 127.3634 235° Southwest  Level Estimated
11:20PM 28.7715 127.2623 235° Southwest  Level Estimated
11:21PM 28.7102 127.1613 235° Southwest  Level Estimated
11:22PM 28.6488 127.0605 235° Southwest  Level Estimated
11:23PM 28.5872 126.9597 235° Southwest  Level Estimated
11:24PM 28.5257 126.8591 235° Southwest  Level Estimated
11:25PM 28.4640 126.7586 235° Southwest  Level Estimated
11:26PM 28.4023 126.6582 235° Southwest  Level Estimated
11:27PM 28.3405 126.5579 235° Southwest  Level Estimated
11:28PM 28.2786 126.4577 235° Southwest  Level Estimated
11:29PM 28.2166 126.3577 235° Southwest  Level Estimated
11:30PM 28.1546 126.2578 235° Southwest  Level Estimated
11:31PM 28.0925 126.1579 235° Southwest  Level Estimated
11:32PM 28.0303 126.0582 235° Southwest  Level Estimated
11:33PM 27.9681 125.9587 235° Southwest  Level Estimated
11:34PM 27.9058 125.8592 235° Southwest  Level Estimated
11:35PM 27.8434 125.7598 235° Southwest  Level Estimated
11:36PM 27.7809 125.6606 235° Southwest  Level Estimated
11:37PM 27.7184 125.5615 235° Southwest  Level Estimated
11:38PM 27.6558 125.4624 234° Southwest  Level Estimated
11:39PM 27.5931 125.3635 234° Southwest  Level Estimated
11:40PM 27.5304 125.2648 234° Southwest  Level Estimated
11:41PM 27.4676 125.1661 234° Southwest  Level Estimated
11:42PM 27.4047 125.0675 234° Southwest  Level Estimated
11:43PM 27.3417 124.9691 234° Southwest  Level Estimated
11:44PM 27.2787 124.8707 234° Southwest  Level Estimated
11:45PM 27.2156 124.7725 234° Southwest  Level Estimated
11:46PM 27.1525 124.6744 234° Southwest  Level Estimated
11:47PM 27.0893 124.5764 234° Southwest  Level Estimated
11:48PM 27.0260 124.4785 234° Southwest  Level Estimated
11:49PM 26.9626 124.3807 234° Southwest  Level Estimated
11:50PM 26.8992 124.2830 234° Southwest  Level Estimated
11:51PM 26.8357 124.1855 234° Southwest  Level Estimated
11:52PM 26.7721 124.0880 234° Southwest  Level Estimated
11:53PM 26.7085 123.9907 234° Southwest  Level Estimated
11:54PM 26.6448 123.8934 234° Southwest  Level Estimated
11:55PM 26.5811 123.7963 234° Southwest  Level Estimated
11:56PM 26.5172 123.6993 234° Southwest  Level Estimated
11:57PM 26.4533 123.6024 234° Southwest  Level Estimated
11:58PM 26.3894 123.5056 234° Southwest  Level Estimated
11:59PM 26.3254 123.4089 234° Southwest  Level Estimated
12:00AM 26.2613 123.3123 234° Southwest  Level Estimated
12:01AM 26.1971 123.2158 233° Southwest  Level Estimated
12:02AM 26.1329 123.1194 233° Southwest  Level Estimated
12:03AM 26.0686 123.0232 233° Southwest  Level Estimated
12:04AM 26.0043 122.9270 233° Southwest  Level Estimated
12:05AM 25.9399 122.8309 233° Southwest  Level Estimated
12:06AM 25.8754 122.7350 233° Southwest  Level Estimated
12:07AM 25.8109 122.6391 233° Southwest  Level Estimated
12:08AM 25.7463 122.5434 233° Southwest  Level Estimated
12:09AM 25.6817 122.4477 233° Southwest  Level Estimated
12:10AM 25.6169 122.3522 233° Southwest  Level Estimated
12:11AM 25.5522 122.2568 233° Southwest  Level Estimated
12:12AM 25.4873 122.1614 233° Southwest  Level Estimated
12:13AM 25.4224 122.0662 233° Southwest  Level Estimated
12:14AM 25.3574 121.9711 233° Southwest  Level Estimated
12:15AM 25.2924 121.8761 233° Southwest  Level Estimated
12:16AM 25.2273 121.7811 233° Southwest  Level Estimated
12:17AM 25.1622 121.6863 233° Southwest  Level Estimated
12:18AM 25.0970 121.5916 233° Southwest  Level Estimated
12:19AM 25.0694 121.5517 233° Southwest  Level Estimated
12:20AM 25.0694 121.5517 North  Level Estimated
12:21AM 25.0694 121.5517 North  Level Estimated
12:22AM 25.0694 121.5517 North  Level Estimated
12:23AM 25.0694 121.5517 North  Level Estimated
12:24AM 25.0694 121.5517 North  Level Estimated
12:25AM 25.0694 121.5517 North  Level Estimated
12:26AM 25.0694 121.5517 North  Level Estimated
12:27AM 25.0694 121.5517 North  Level Estimated
12:28AM 25.0694 121.5517 North  Level Estimated
12:29AM 25.0694 121.5517 North  Level Estimated